Time,TemperatureF,DewpointF,PressureIn,WindDirection,WindDirectionDegrees,WindSpeedMPH,WindSpeedGustMPH,Humidity,HourlyPrecipIn,Conditions,Clouds,dailyrainin,SoftwareType,DateUTC
2013-11-10 00:02:00,40.4,25.0,30.39,WSW,243,1.0,5.0,55,0.00,,,0.00,weatherlink.com 1.10,2013-11-10 05:02:00,
2013-11-10 00:17:00,40.5,25.0,30.39,North,5,0.0,9.0,55,0.00,,,0.00,weatherlink.com 1.10,2013-11-10 05:17:00,
2013-11-10 00:32:00,40.3,26.0,30.39,NW,315,0.0,3.0,56,0.00,,,0.00,weatherlink.com 1.10,2013-11-10 05:32:00,
2013-11-10 00:47:00,39.4,25.0,30.39,North,5,0.0,5.0,57,0.00,,,0.00,weatherlink.com 1.10,2013-11-10 05:47:00,
2013-11-10 01:02:00,39.1,26.0,30.38,WNW,284,0.0,3.0,59,0.00,,,0.00,weatherlink.com 1.10,2013-11-10 06:02:00,
2013-11-10 01:17:00,39.1,25.0,30.38,NNE,18,2.0,5.0,58,0.00,,,0.00,weatherlink.com 1.10,2013-11-10 06:17:00,
2013-11-10 01:32:00,39.5,26.0,30.38,West,280,0.0,3.0,58,0.00,,,0.00,weatherlink.com 1.10,2013-11-10 06:32:00,
2013-11-10 01:47:00,39.5,26.0,30.37,North,355,1.0,2.0,58,0.00,,,0.00,weatherlink.com 1.10,2013-11-10 06:47:00,
2013-11-10 02:02:00,39.7,25.0,30.37,NNE,16,0.0,5.0,57,0.00,,,0.00,weatherlink.com 1.10,2013-11-10 07:02:00,
2013-11-10 02:17:00,39.8,26.0,30.37,WSW,254,0.0,7.0,58,0.00,,,0.00,weatherlink.com 1.10,2013-11-10 07:17:00,
2013-11-10 02:32:00,39.5,26.0,30.37,NW,319,5.0,5.0,59,0.00,,,0.00,weatherlink.com 1.10,2013-11-10 07:32:00,
2013-11-10 02:47:00,39.4,26.0,30.37,NW,323,0.0,4.0,59,0.00,,,0.00,weatherlink.com 1.10,2013-11-10 07:47:00,
2013-11-10 03:02:00,39.3,26.0,30.37,WNW,289,0.0,10.0,59,0.00,,,0.00,weatherlink.com 1.10,2013-11-10 08:02:00,
2013-11-10 03:17:00,39.2,26.0,30.36,NW,324,1.0,4.0,60,0.00,,,0.00,weatherlink.com 1.10,2013-11-10 08:17:00,
2013-11-10 03:32:00,38.9,26.0,30.36,NNW,340,0.0,4.0,61,0.00,,,0.00,weatherlink.com 1.10,2013-11-10 08:32:00,
2013-11-10 03:47:00,39.0,27.0,30.36,NW,320,0.0,5.0,62,0.00,,,0.00,weatherlink.com 1.10,2013-11-10 08:47:00,
2013-11-10 04:02:00,39.1,27.0,30.36,West,280,2.0,3.0,62,0.00,,,0.00,weatherlink.com 1.10,2013-11-10 09:02:00,
2013-11-10 04:17:00,39.2,27.0,30.36,NNW,331,0.0,5.0,62,0.00,,,0.00,weatherlink.com 1.10,2013-11-10 09:17:00,
2013-11-10 04:32:00,39.2,27.0,30.36,NNW,331,0.0,7.0,63,0.00,,,0.00,weatherlink.com 1.10,2013-11-10 09:32:00,
2013-11-10 04:47:00,39.1,28.0,30.36,ENE,68,0.0,4.0,64,0.00,,,0.00,weatherlink.com 1.10,2013-11-10 09:47:00,
2013-11-10 05:02:00,38.6,28.0,30.36,West,270,0.0,6.0,65,0.00,,,0.00,weatherlink.com 1.10,2013-11-10 10:02:00,
2013-11-10 05:17:00,38.2,28.0,30.36,WSW,248,3.0,3.0,67,0.00,,,0.00,weatherlink.com 1.10,2013-11-10 10:17:00,
2013-11-10 05:32:00,37.3,28.0,30.36,North,355,0.0,0.0,69,0.00,,,0.00,weatherlink.com 1.10,2013-11-10 10:32:00,
2013-11-10 05:47:00,36.9,28.0,30.36,NNW,344,0.0,0.0,70,0.00,,,0.00,weatherlink.com 1.10,2013-11-10 10:47:00,
2013-11-10 06:02:00,37.1,28.0,30.37,WSW,241,2.0,3.0,70,0.00,,,0.00,weatherlink.com 1.10,2013-11-10 11:02:00,
2013-11-10 06:17:00,36.5,28.0,30.36,East,86,2.0,2.0,71,0.00,,,0.00,weatherlink.com 1.10,2013-11-10 11:17:00,
2013-11-10 06:32:00,36.7,28.0,30.36,West,269,0.0,4.0,72,0.00,,,0.00,weatherlink.com 1.10,2013-11-10 11:32:00,
2013-11-10 06:47:00,36.5,29.0,30.37,NW,326,0.0,3.0,73,0.00,,,0.00,weatherlink.com 1.10,2013-11-10 11:47:00,
2013-11-10 07:02:00,36.6,29.0,30.37,WSW,240,0.0,4.0,75,0.00,,,0.00,weatherlink.com 1.10,2013-11-10 12:02:00,
2013-11-10 07:17:00,36.7,29.0,30.37,North,355,0.0,2.0,75,0.00,,,0.00,weatherlink.com 1.10,2013-11-10 12:17:00,
2013-11-10 07:32:00,37.1,30.0,30.38,NW,315,0.0,6.0,76,0.00,,,0.00,weatherlink.com 1.10,2013-11-10 12:32:00,
2013-11-10 07:47:00,37.4,30.0,30.37,West,271,4.0,4.0,76,0.00,,,0.00,weatherlink.com 1.10,2013-11-10 12:47:00,
2013-11-10 08:02:00,38.1,31.0,30.38,NNW,343,0.0,5.0,76,0.00,,,0.00,weatherlink.com 1.10,2013-11-10 13:02:00,
2013-11-10 08:17:00,38.9,32.0,30.39,NNW,328,4.0,13.0,75,0.00,,,0.00,weatherlink.com 1.10,2013-11-10 13:17:00,
2013-11-10 08:32:00,39.6,32.0,30.39,ESE,109,1.0,10.0,75,0.00,,,0.00,weatherlink.com 1.10,2013-11-10 13:32:00,
2013-11-10 08:48:00,40.4,33.0,30.39,WSW,257,8.0,13.0,75,0.00,,,0.00,weatherlink.com 1.10,2013-11-10 13:48:00,
2013-11-10 09:03:00,41.1,33.0,30.38,NNW,329,0.0,15.0,74,0.00,,,0.00,weatherlink.com 1.10,2013-11-10 14:03:00,
2013-11-10 09:18:00,42.0,34.0,30.38,WSW,252,10.0,13.0,73,0.00,,,0.00,weatherlink.com 1.10,2013-11-10 14:18:00,
2013-11-10 09:33:00,42.9,34.0,30.39,NNE,17,2.0,10.0,72,0.00,,,0.00,weatherlink.com 1.10,2013-11-10 14:33:00,
2013-11-10 09:48:00,44.5,35.0,30.38,South,177,2.0,8.0,69,0.00,,,0.00,weatherlink.com 1.10,2013-11-10 14:48:00,
2013-11-10 10:03:00,45.0,35.0,30.37,NE,45,0.0,7.0,67,0.00,,,0.00,weatherlink.com 1.10,2013-11-10 15:03:00,
2013-11-10 10:18:00,45.2,34.0,30.37,WSW,249,9.0,11.0,66,0.00,,,0.00,weatherlink.com 1.10,2013-11-10 15:18:00,
2013-11-10 10:33:00,46.3,35.0,30.37,SE,128,2.0,8.0,64,0.00,,,0.00,weatherlink.com 1.10,2013-11-10 15:33:00,
2013-11-10 10:48:00,47.1,34.0,30.37,NNW,329,1.0,11.0,61,0.00,,,0.00,weatherlink.com 1.10,2013-11-10 15:48:00,
2013-11-10 11:03:00,47.2,33.0,30.37,NW,325,3.0,16.0,59,0.00,,,0.00,weatherlink.com 1.10,2013-11-10 16:03:00,
2013-11-10 11:18:00,47.9,34.0,30.37,North,355,4.0,19.0,58,0.00,,,0.00,weatherlink.com 1.10,2013-11-10 16:18:00,
2013-11-10 11:33:00,49.5,33.0,30.37,WNW,297,3.0,12.0,54,0.00,,,0.00,weatherlink.com 1.10,2013-11-10 16:33:00,
2013-11-10 11:48:00,50.0,33.0,30.36,North,5,3.0,11.0,53,0.00,,,0.00,weatherlink.com 1.10,2013-11-10 16:48:00,
2013-11-10 12:03:00,51.0,31.0,30.35,North,5,3.0,18.0,46,0.00,,,0.00,weatherlink.com 1.10,2013-11-10 17:03:00,
2013-11-10 12:18:00,50.6,27.0,30.35,NE,36,8.0,24.0,41,0.00,,,0.00,weatherlink.com 1.10,2013-11-10 17:18:00,
2013-11-10 12:33:00,51.7,24.0,30.35,North,355,2.0,19.0,34,0.00,,,0.00,weatherlink.com 1.10,2013-11-10 17:33:00,
2013-11-10 12:48:00,51.9,23.0,30.35,West,273,4.0,11.0,33,0.00,,,0.00,weatherlink.com 1.10,2013-11-10 17:48:00,
2013-11-10 13:03:00,50.8,24.0,30.34,WSW,254,6.0,15.0,35,0.00,,,0.00,weatherlink.com 1.10,2013-11-10 18:03:00,
2013-11-10 13:18:00,51.4,24.0,30.34,WSW,253,6.0,11.0,35,0.00,,,0.00,weatherlink.com 1.10,2013-11-10 18:18:00,
2013-11-10 13:33:00,51.1,25.0,30.34,NNW,343,0.0,15.0,36,0.00,,,0.00,weatherlink.com 1.10,2013-11-10 18:33:00,
2013-11-10 13:48:00,51.4,26.0,30.34,North,355,6.0,18.0,37,0.00,,,0.00,weatherlink.com 1.10,2013-11-10 18:48:00,
2013-11-10 14:03:00,51.5,25.0,30.34,NW,319,1.0,16.0,36,0.00,,,0.00,weatherlink.com 1.10,2013-11-10 19:03:00,
2013-11-10 14:18:00,51.1,25.0,30.35,WSW,257,6.0,19.0,36,0.00,,,0.00,weatherlink.com 1.10,2013-11-10 19:18:00,
2013-11-10 14:33:00,50.8,25.0,30.35,SE,134,4.0,13.0,37,0.00,,,0.00,weatherlink.com 1.10,2013-11-10 19:33:00,
2013-11-10 14:48:00,50.5,26.0,30.35,NE,45,4.0,12.0,38,0.00,,,0.00,weatherlink.com 1.10,2013-11-10 19:48:00,
2013-11-10 15:03:00,50.1,26.0,30.35,West,269,0.0,14.0,39,0.00,,,0.00,weatherlink.com 1.10,2013-11-10 20:03:00,
2013-11-10 15:18:00,50.1,26.0,30.36,SE,138,0.0,9.0,40,0.00,,,0.00,weatherlink.com 1.10,2013-11-10 20:18:00,
2013-11-10 15:33:00,49.6,27.0,30.36,NE,48,6.0,13.0,41,0.00,,,0.00,weatherlink.com 1.10,2013-11-10 20:33:00,
2013-11-10 15:48:00,49.0,24.0,30.37,NW,312,4.0,7.0,37,0.00,,,0.00,weatherlink.com 1.10,2013-11-10 20:48:00,
2013-11-10 16:03:00,47.8,24.0,30.38,NNW,329,0.0,7.0,39,0.00,,,0.00,weatherlink.com 1.10,2013-11-10 21:03:00,
2013-11-10 16:18:00,46.7,23.0,30.39,WNW,293,0.0,9.0,40,0.00,,,0.00,weatherlink.com 1.10,2013-11-10 21:18:00,
2013-11-10 16:33:00,45.8,24.0,30.40,NW,313,0.0,7.0,42,0.00,,,0.00,weatherlink.com 1.10,2013-11-10 21:33:00,
2013-11-10 16:48:00,44.8,24.0,30.40,WNW,284,1.0,6.0,45,0.00,,,0.00,weatherlink.com 1.10,2013-11-10 21:48:00,
2013-11-10 17:03:00,44.0,25.0,30.41,NW,320,1.0,5.0,48,0.00,,,0.00,weatherlink.com 1.10,2013-11-10 22:03:00,
2013-11-10 17:18:00,43.0,26.0,30.42,West,276,1.0,11.0,51,0.00,,,0.00,weatherlink.com 1.10,2013-11-10 22:18:00,
2013-11-10 17:33:00,42.2,26.0,30.43,NNW,336,1.0,4.0,53,0.00,,,0.00,weatherlink.com 1.10,2013-11-10 22:33:00,
2013-11-10 17:49:00,41.5,26.0,30.43,NNW,340,0.0,5.0,55,0.00,,,0.00,weatherlink.com 1.10,2013-11-10 22:49:00,
2013-11-10 18:04:00,40.8,26.0,30.45,SW,235,0.0,6.0,57,0.00,,,0.00,weatherlink.com 1.10,2013-11-10 23:04:00,
2013-11-10 18:19:00,39.9,27.0,30.45,NNE,31,0.0,4.0,61,0.00,,,0.00,weatherlink.com 1.10,2013-11-10 23:19:00,
2013-11-10 18:34:00,39.3,27.0,30.46,West,263,1.0,5.0,62,0.00,,,0.00,weatherlink.com 1.10,2013-11-10 23:34:00,
2013-11-10 18:49:00,38.7,27.0,30.47,NW,309,0.0,6.0,62,0.00,,,0.00,weatherlink.com 1.10,2013-11-10 23:49:00,
2013-11-10 19:04:00,38.1,26.0,30.47,West,280,0.0,6.0,63,0.00,,,0.00,weatherlink.com 1.10,2013-11-11 00:04:00,
2013-11-10 19:19:00,37.5,25.0,30.48,NNW,327,0.0,6.0,61,0.00,,,0.00,weatherlink.com 1.10,2013-11-11 00:19:00,
2013-11-10 19:34:00,36.9,24.0,30.48,WSW,254,1.0,4.0,61,0.00,,,0.00,weatherlink.com 1.10,2013-11-11 00:34:00,
2013-11-10 19:49:00,36.3,24.0,30.48,West,261,0.0,2.0,61,0.00,,,0.00,weatherlink.com 1.10,2013-11-11 00:49:00,
2013-11-10 20:04:00,35.5,24.0,30.49,West,268,0.0,1.0,63,0.00,,,0.00,weatherlink.com 1.10,2013-11-11 01:04:00,
2013-11-10 20:19:00,34.7,24.0,30.49,West,269,0.0,0.0,65,0.00,,,0.00,weatherlink.com 1.10,2013-11-11 01:19:00,
2013-11-10 20:34:00,33.4,23.0,30.49,West,269,0.0,0.0,67,0.00,,,0.00,weatherlink.com 1.10,2013-11-11 01:34:00,
2013-11-10 20:49:00,32.6,23.0,30.49,West,269,0.0,1.0,69,0.00,,,0.00,weatherlink.com 1.10,2013-11-11 01:49:00,
2013-11-10 21:04:00,32.6,24.0,30.50,West,269,0.0,0.0,70,0.00,,,0.00,weatherlink.com 1.10,2013-11-11 02:04:00,
2013-11-10 21:19:00,31.8,23.0,30.50,West,269,0.0,0.0,71,0.00,,,0.00,weatherlink.com 1.10,2013-11-11 02:19:00,
2013-11-10 21:34:00,30.7,23.0,30.50,West,269,0.0,0.0,74,0.00,,,0.00,weatherlink.com 1.10,2013-11-11 02:34:00,
2013-11-10 21:49:00,29.7,23.0,30.50,West,269,0.0,0.0,76,0.00,,,0.00,weatherlink.com 1.10,2013-11-11 02:49:00,
2013-11-10 22:04:00,28.9,23.0,30.51,West,269,0.0,0.0,78,0.00,,,0.00,weatherlink.com 1.10,2013-11-11 03:04:00,
2013-11-10 22:19:00,28.4,23.0,30.51,West,269,0.0,0.0,79,0.00,,,0.00,weatherlink.com 1.10,2013-11-11 03:19:00,
2013-11-10 22:34:00,27.6,23.0,30.51,West,269,0.0,0.0,81,0.00,,,0.00,weatherlink.com 1.10,2013-11-11 03:34:00,
2013-11-10 22:49:00,27.1,22.0,30.52,West,269,0.0,0.0,82,0.00,,,0.00,weatherlink.com 1.10,2013-11-11 03:49:00,
2013-11-10 23:04:00,26.8,22.0,30.52,West,269,0.0,0.0,83,0.00,,,0.00,weatherlink.com 1.10,2013-11-11 04:04:00,
2013-11-10 23:19:00,26.3,22.0,30.52,West,269,0.0,0.0,84,0.00,,,0.00,weatherlink.com 1.10,2013-11-11 04:19:00,
2013-11-10 23:34:00,25.8,22.0,30.52,West,269,0.0,0.0,85,0.00,,,0.00,weatherlink.com 1.10,2013-11-11 04:34:00,
2013-11-10 23:49:00,25.5,22.0,30.51,West,269,0.0,0.0,86,0.00,,,0.00,weatherlink.com 1.10,2013-11-11 04:49:00,